Time;durP1;ratioP1;P1;durP2;ratioP2;P2;SDS_P1;SDS_P2;PMS_P1;PMS_P2;Temp;Humidity;BMP_temperature;BMP_pressure;BME280_temperature;BME280_humidity;BME280_pressure;Samples;Min_cycle;Max_cycle;Signal;HPM_P1;HPM_P2
2023/03/07 00:00:44;;;;;;;17.03;14.07;;;;;;;2.64;80.91;99068.13;5039855;28;20226;-82
2023/03/07 00:03:11;;;;;;;16.83;15.10;;;;;;;2.72;81.14;99061.19;5038709;28;20257;-81
2023/03/07 00:05:38;;;;;;;17.87;13.93;;;;;;;2.76;80.76;99064.59;5042780;28;20671;-81
2023/03/07 00:08:05;;;;;;;16.30;14.63;;;;;;;2.88;81.13;99050.75;5058628;28;20283;-80
2023/03/07 00:10:32;;;;;;;17.63;14.63;;;;;;;2.83;80.47;99055.06;5059039;28;20247;-81
2023/03/07 00:12:59;;;;;;;15.50;14.00;;;;;;;2.90;81.32;99030.97;5058515;28;20564;-80
2023/03/07 00:15:26;;;;;;;15.10;13.47;;;;;;;2.92;81.48;99030.06;5058439;28;20271;-80
2023/03/07 00:17:52;;;;;;;16.20;13.73;;;;;;;2.93;81.84;99011.16;5058469;28;20217;-80
2023/03/07 00:20:19;;;;;;;18.27;13.90;;;;;;;2.74;81.40;99000.19;5058761;28;20225;-80
2023/03/07 00:22:46;;;;;;;14.07;12.63;;;;;;;2.77;82.51;98983.84;5058498;28;20213;-79
2023/03/07 00:25:14;;;;;;;14.67;13.07;;;;;;;2.76;82.47;98958.97;5058589;28;20716;-81
2023/03/07 00:27:41;;;;;;;17.40;14.07;;;;;;;2.84;82.72;98933.94;5058458;28;20322;-81
2023/03/07 00:30:11;;;;;;;15.50;13.87;;;;;;;2.95;82.59;98921.78;5058848;28;20234;-80
2023/03/07 00:32:37;;;;;;;15.40;13.73;;;;;;;2.86;82.08;98926.22;5058396;28;20278;-79
2023/03/07 00:35:04;;;;;;;16.20;13.93;;;;;;;2.86;82.38;98921.91;5054561;28;20599;-81
2023/03/07 00:37:30;;;;;;;16.30;13.10;;;;;;;2.92;82.69;98906.34;5057580;28;20213;-79
2023/03/07 00:39:57;;;;;;;15.53;14.00;;;;;;;2.89;82.82;98902.97;5059271;28;20211;-81
2023/03/07 00:42:24;;;;;;;17.27;15.10;;;;;;;2.89;82.82;98888.34;5058450;28;20230;-80
2023/03/07 00:44:51;;;;;;;15.30;13.80;;;;;;;2.81;83.34;98868.72;5058004;28;20206;-80
2023/03/07 00:47:17;;;;;;;15.30;13.73;;;;;;;2.79;83.87;98855.84;5058199;28;20252;-81
2023/03/07 00:49:43;;;;;;;15.20;13.13;;;;;;;2.63;84.33;98826.84;5057456;28;20226;-81
2023/03/07 00:52:10;;;;;;;18.10;14.23;;;;;;;2.68;84.80;98798.47;5057856;28;20202;-80
2023/03/07 00:54:36;;;;;;;15.80;13.80;;;;;;;2.69;86.09;98753.78;5057804;28;20210;-81
2023/03/07 00:57:03;;;;;;;17.83;15.07;;;;;;;2.54;87.73;98729.13;5058024;28;20211;-80
2023/03/07 00:59:31;;;;;;;16.67;14.70;;;;;;;2.51;87.55;98686.22;5057426;28;20222;-81
2023/03/07 01:01:57;;;;;;;16.33;14.53;;;;;;;2.53;88.83;98656.13;5058126;28;20299;-80
2023/03/07 01:04:23;;;;;;;15.70;13.63;;;;;;;2.58;88.85;98631.19;5061982;28;20668;-80
2023/03/07 01:06:50;;;;;;;17.73;14.20;;;;;;;2.62;88.57;98641.41;5057113;28;20214;-81
2023/03/07 01:09:16;;;;;;;15.27;13.67;;;;;;;2.50;88.60;98629.59;5060975;28;20672;-80
2023/03/07 01:11:43;;;;;;;14.07;12.60;;;;;;;2.45;89.25;98610.78;5061729;28;20198;-80
2023/03/07 01:14:10;;;;;;;16.13;13.03;;;;;;;2.48;89.78;98591.00;5061012;28;20256;-80
2023/03/07 01:16:38;;;;;;;13.57;12.17;;;;;;;2.51;90.12;98569.47;5060862;28;20205;-80
2023/03/07 01:19:07;;;;;;;14.10;12.60;;;;;;;2.51;90.69;98547.16;5061382;28;20259;-81
2023/03/07 01:21:35;;;;;;;15.17;13.60;;;;;;;2.54;90.66;98530.81;5061138;28;20289;-81
2023/03/07 01:24:02;;;;;;;14.90;12.97;;;;;;;2.49;90.83;98525.72;5061216;28;20234;-81
2023/03/07 01:26:30;;;;;;;15.70;12.90;;;;;;;2.54;91.07;98518.78;5060385;28;20636;-81
2023/03/07 01:28:59;;;;;;;15.03;13.53;;;;;;;2.46;90.95;98524.91;5059128;28;20860;-80
2023/03/07 01:31:26;;;;;;;14.83;12.53;;;;;;;2.44;91.47;98513.81;5060241;28;20265;-80
2023/03/07 01:33:54;;;;;;;14.17;12.67;;;;;;;2.46;92.06;98491.44;5060438;28;20207;-81
2023/03/07 01:36:24;;;;;;;12.43;11.23;;;;;;;2.40;92.54;98474.41;5061784;28;20263;-79
2023/03/07 01:38:54;;;;;;;13.47;12.17;;;;;;;2.43;92.95;98463.19;5061793;28;20248;-81
2023/03/07 01:41:20;;;;;;;15.37;12.73;;;;;;;2.36;93.59;98439.31;5061422;28;20279;-81
2023/03/07 01:43:47;;;;;;;14.87;11.97;;;;;;;2.33;95.28;98408.44;5061747;28;20627;-81
2023/03/07 01:46:27;;;;;;;15.63;11.90;;;;;;;2.24;95.66;98378.59;5061740;28;20250;-81
2023/03/07 01:48:59;;;;;;;12.43;11.13;;;;;;;2.38;96.08;98356.00;5061214;28;20290;-81
2023/03/07 01:51:26;;;;;;;12.13;10.93;;;;;;;2.50;96.05;98349.75;5061200;28;20210;-81
2023/03/07 01:53:53;;;;;;;11.87;10.43;;;;;;;2.31;95.91;98346.69;5061167;28;20205;-80
2023/03/07 01:56:21;;;;;;;12.80;11.47;;;;;;;2.43;97.00;98329.31;5060994;28;20206;-80
2023/03/07 01:58:48;;;;;;;11.43;10.30;;;;;;;2.45;96.53;98330.13;5060401;28;20222;-81
2023/03/07 02:01:15;;;;;;;12.27;11.07;;;;;;;2.38;97.48;98327.69;5060352;28;20225;-81
2023/03/07 02:03:46;;;;;;;11.50;10.27;;;;;;;2.37;97.01;98314.84;5061159;28;20233;-81
2023/03/07 02:06:14;;;;;;;11.60;10.40;;;;;;;2.41;97.33;98311.31;5060663;28;20207;-79
2023/03/07 02:08:43;;;;;;;11.23;9.77;;;;;;;2.47;98.25;98295.72;5060525;28;20248;-82
2023/03/07 02:11:11;;;;;;;11.47;9.97;;;;;;;2.29;97.93;98301.28;5060702;28;20609;-82
2023/03/07 02:13:37;;;;;;;11.43;10.23;;;;;;;2.25;99.02;98297.91;5058806;28;20204;-81
2023/03/07 02:16:06;;;;;;;15.17;10.50;;;;;;;2.26;99.69;98289.31;5060349;28;20748;-81
2023/03/07 02:18:38;;;;;;;11.73;10.43;;;;;;;2.24;99.99;98274.75;5057510;28;20254;-82
2023/03/07 02:21:11;;;;;;;12.20;10.73;;;;;;;2.20;100.00;98263.72;5060017;28;20250;-81
2023/03/07 02:23:46;;;;;;;11.43;10.20;;;;;;;2.27;100.00;98244.66;5060950;28;20706;-80
2023/03/07 02:26:20;;;;;;;11.83;10.53;;;;;;;2.32;100.00;98244.56;5060002;28;20201;-81
2023/03/07 02:28:48;;;;;;;12.33;10.97;;;;;;;2.37;100.00;98238.44;5060632;28;20229;-79
2023/03/07 02:31:14;;;;;;;13.33;10.50;;;;;;;2.31;100.00;98240.31;5060642;28;20206;-81
2023/03/07 02:33:41;;;;;;;11.57;9.80;;;;;;;2.08;100.00;98233.91;5060293;28;20202;-80
2023/03/07 02:36:10;;;;;;;10.73;9.73;;;;;;;1.98;100.00;98214.38;5054335;28;20252;-82
2023/03/07 02:38:40;;;;;;;10.87;9.50;;;;;;;2.09;100.00;98196.16;5051607;28;20292;-81
2023/03/07 02:41:08;;;;;;;10.90;9.80;;;;;;;2.07;100.00;98210.78;5059940;28;20288;-81
2023/03/07 02:43:34;;;;;;;9.83;8.63;;;;;;;2.17;100.00;98207.13;5060103;28;20269;-81
2023/03/07 02:46:02;;;;;;;12.37;9.20;;;;;;;2.18;100.00;98206.25;5059993;28;20234;-82
2023/03/07 02:48:29;;;;;;;10.23;9.13;;;;;;;2.24;100.00;98221.59;5059748;28;20235;-80
2023/03/07 02:50:56;;;;;;;9.50;8.40;;;;;;;2.23;100.00;98219.88;5060161;28;20211;-80
2023/03/07 02:53:22;;;;;;;9.87;8.87;;;;;;;2.27;100.00;98229.22;5059599;28;20279;-80
2023/03/07 02:55:49;;;;;;;9.80;8.90;;;;;;;2.22;100.00;98232.75;5059886;28;20202;-80
2023/03/07 02:58:15;;;;;;;8.80;7.90;;;;;;;2.38;100.00;98229.84;5059751;28;20726;-81
2023/03/07 03:00:42;;;;;;;9.37;8.47;;;;;;;2.24;100.00;98226.72;5059654;28;20230;-81
2023/03/07 03:03:10;;;;;;;9.63;7.97;;;;;;;2.29;100.00;98226.63;5059979;28;20225;-81
2023/03/07 03:05:37;;;;;;;9.03;8.13;;;;;;;2.28;100.00;98224.91;5054864;28;20212;-81
2023/03/07 03:08:03;;;;;;;9.73;8.80;;;;;;;2.18;100.00;98224.25;5059111;28;20247;-80
2023/03/07 03:10:30;;;;;;;9.73;8.73;;;;;;;2.35;100.00;98209.31;5059983;28;20610;-80
2023/03/07 03:12:56;;;;;;;9.53;8.53;;;;;;;2.41;100.00;98212.63;5059576;28;20266;-81
2023/03/07 03:15:22;;;;;;;9.00;8.10;;;;;;;2.38;100.00;98216.97;5059747;28;20207;-81
2023/03/07 03:17:49;;;;;;;8.90;8.00;;;;;;;2.33;100.00;98212.81;5059466;28;20227;-81
2023/03/07 03:20:18;;;;;;;8.93;8.03;;;;;;;2.25;100.00;98215.53;5040543;28;20204;-81
2023/03/07 03:22:44;;;;;;;9.97;9.00;;;;;;;2.21;100.00;98211.34;5059448;28;20237;-80
2023/03/07 03:25:13;;;;;;;8.60;7.80;;;;;;;2.38;100.00;98201.53;5059380;28;20235;-79
2023/03/07 03:27:40;;;;;;;9.17;8.27;;;;;;;2.35;100.00;98208.47;5058420;28;20270;-81
2023/03/07 03:30:10;;;;;;;8.90;8.00;;;;;;;2.45;100.00;98209.94;5058826;28;20594;-80
2023/03/07 03:32:36;;;;;;;7.87;7.07;;;;;;;2.35;100.00;98211.88;5058668;28;20206;-81
2023/03/07 03:35:03;;;;;;;8.47;7.57;;;;;;;2.37;100.00;98222.16;5058799;28;20260;-80
2023/03/07 03:37:31;;;;;;;9.30;8.00;;;;;;;2.31;100.00;98212.81;5049733;28;20229;-80
2023/03/07 03:39:57;;;;;;;8.50;7.70;;;;;;;2.36;100.00;98216.16;5059495;28;20205;-81
2023/03/07 03:42:24;;;;;;;8.20;7.40;;;;;;;2.46;100.00;98215.94;5057309;28;20229;-79
2023/03/07 03:44:50;;;;;;;7.57;6.80;;;;;;;2.50;100.00;98222.75;5059974;28;20224;-80
2023/03/07 03:47:17;;;;;;;7.00;6.37;;;;;;;2.61;100.00;98214.75;5058408;28;20218;-80
2023/03/07 03:49:43;;;;;;;7.30;6.50;;;;;;;2.62;100.00;98225.03;5058943;28;20300;-80
2023/03/07 03:52:10;;;;;;;7.50;6.63;;;;;;;2.53;100.00;98238.94;5059515;28;20692;-80
2023/03/07 03:54:38;;;;;;;7.17;6.50;;;;;;;2.62;100.00;98242.19;5058621;28;20267;-81
2023/03/07 03:57:04;;;;;;;7.37;6.67;;;;;;;2.65;100.00;98235.25;5058738;28;20677;-81
2023/03/07 03:59:31;;;;;;;7.13;6.23;;;;;;;2.68;100.00;98248.06;5058277;28;20299;-81
2023/03/07 04:01:57;;;;;;;6.90;6.30;;;;;;;2.69;100.00;98264.38;5058744;28;20278;-81
2023/03/07 04:04:23;;;;;;;6.97;6.37;;;;;;;2.77;100.00;98265.03;5058667;28;20204;-81
2023/03/07 04:06:50;;;;;;;6.90;6.27;;;;;;;2.77;100.00;98272.78;5050414;28;20729;-81
2023/03/07 04:09:16;;;;;;;6.63;6.03;;;;;;;2.88;100.00;98265.66;5058764;28;20263;-81
2023/03/07 04:11:44;;;;;;;6.63;6.03;;;;;;;2.95;100.00;98272.38;5058173;28;20208;-81
2023/03/07 04:14:10;;;;;;;6.30;5.70;;;;;;;2.97;100.00;98274.88;5058198;28;20201;-80
2023/03/07 04:16:36;;;;;;;7.17;6.57;;;;;;;2.89;100.00;98280.22;5058026;28;20215;-80
2023/03/07 04:19:03;;;;;;;6.43;5.93;;;;;;;2.93;100.00;98286.16;5058126;28;20627;-81
2023/03/07 04:21:29;;;;;;;7.60;6.90;;;;;;;2.88;100.00;98267.41;5058217;28;20203;-81
2023/03/07 04:23:57;;;;;;;7.33;6.63;;;;;;;2.95;100.00;98251.75;5058906;28;20588;-81
2023/03/07 04:26:23;;;;;;;7.90;7.20;;;;;;;2.92;100.00;98254.41;5058790;28;20215;-81
2023/03/07 04:28:51;;;;;;;7.37;6.67;;;;;;;3.05;100.00;98252.34;5059127;28;20783;-80
2023/03/07 04:31:19;;;;;;;7.63;6.93;;;;;;;3.07;100.00;98260.06;5060147;28;20202;-81
2023/03/07 04:33:46;;;;;;;7.60;6.90;;;;;;;3.09;100.00;98266.91;5060268;28;20206;-80
2023/03/07 04:36:14;;;;;;;7.57;6.87;;;;;;;3.06;100.00;98266.97;5051300;28;20352;-79
2023/03/07 04:38:41;;;;;;;7.70;7.00;;;;;;;3.13;100.00;98259.91;5062619;28;20235;-81
2023/03/07 04:41:07;;;;;;;8.37;7.57;;;;;;;3.01;100.00;98261.06;5062832;28;20236;-80
2023/03/07 04:43:34;;;;;;;7.80;7.20;;;;;;;3.09;100.00;98250.56;5062443;28;20910;-82
2023/03/07 04:46:02;;;;;;;8.40;7.67;;;;;;;3.03;100.00;98243.81;5062866;28;20301;-81
2023/03/07 04:48:28;;;;;;;9.17;8.27;;;;;;;3.11;100.00;98248.78;5063739;28;20234;-80
2023/03/07 04:50:55;;;;;;;8.83;7.87;;;;;;;3.05;100.00;98243.78;5062815;28;20571;-81
2023/03/07 04:53:21;;;;;;;8.40;7.70;;;;;;;3.07;100.00;98239.44;5062574;28;20203;-82
2023/03/07 04:55:47;;;;;;;8.67;7.90;;;;;;;3.23;100.00;98237.34;5061648;28;20205;-81
2023/03/07 04:58:14;;;;;;;8.30;7.50;;;;;;;3.26;100.00;98238.09;5061697;28;20233;-80
2023/03/07 05:00:41;;;;;;;7.97;7.27;;;;;;;3.33;100.00;98247.41;5061929;28;20213;-82
2023/03/07 05:03:10;;;;;;;9.00;8.10;;;;;;;3.43;100.00;98248.00;5062673;28;20599;-82
2023/03/07 05:05:37;;;;;;;9.47;8.33;;;;;;;3.41;100.00;98254.94;5059546;28;20257;-81
2023/03/07 05:08:04;;;;;;;8.33;7.57;;;;;;;3.20;99.96;98269.19;5047931;28;20767;-81
2023/03/07 05:10:30;;;;;;;9.07;8.17;;;;;;;3.27;100.00;98255.28;5062082;28;20199;-81
2023/03/07 05:12:57;;;;;;;8.90;8.10;;;;;;;3.23;100.00;98247.66;5062245;28;20234;-82
2023/03/07 05:15:23;;;;;;;9.43;8.53;;;;;;;3.29;100.00;98239.75;5061835;28;20232;-81
2023/03/07 05:17:49;;;;;;;10.00;9.10;;;;;;;3.31;100.00;98240.56;5062551;28;20773;-81
2023/03/07 05:20:18;;;;;;;8.90;8.20;;;;;;;3.31;100.00;98243.13;5061828;28;20230;-81
2023/03/07 05:22:44;;;;;;;9.10;8.20;;;;;;;3.25;100.00;98243.28;5061425;28;20334;-81
2023/03/07 05:25:11;;;;;;;9.30;8.50;;;;;;;3.28;100.00;98246.66;5062881;28;20205;-81
2023/03/07 05:27:37;;;;;;;9.07;8.17;;;;;;;3.26;100.00;98245.84;5054316;28;20263;-80
2023/03/07 05:30:04;;;;;;;8.33;7.57;;;;;;;3.29;100.00;98245.78;5031737;28;20199;-80
2023/03/07 05:32:31;;;;;;;9.00;8.20;;;;;;;3.30;100.00;98237.16;5030839;28;20552;-81
2023/03/07 05:34:57;;;;;;;7.63;6.93;;;;;;;3.30;100.00;98239.72;5027856;28;20211;-80
2023/03/07 05:37:25;;;;;;;8.33;7.53;;;;;;;3.34;100.00;98243.91;5034951;28;20231;-80
2023/03/07 05:39:51;;;;;;;8.10;7.40;;;;;;;3.26;100.00;98250.16;5035387;28;20258;-82
2023/03/07 05:42:18;;;;;;;8.00;7.30;;;;;;;3.31;100.00;98258.63;5020080;28;20227;-80
2023/03/07 05:44:44;;;;;;;8.37;7.63;;;;;;;3.24;100.00;98252.78;5020103;28;20266;-81
2023/03/07 05:47:10;;;;;;;8.77;7.97;;;;;;;3.26;100.00;98257.91;5019054;28;20265;-81
2023/03/07 05:49:37;;;;;;;9.13;8.33;;;;;;;3.21;100.00;98247.72;5017807;28;20260;-80
2023/03/07 05:52:03;;;;;;;10.73;9.83;;;;;;;3.09;100.00;98227.38;5020270;28;20204;-82
2023/03/07 05:54:31;;;;;;;10.30;9.40;;;;;;;2.90;100.00;98203.78;5019534;28;20267;-80
2023/03/07 05:56:57;;;;;;;10.53;9.63;;;;;;;2.65;100.00;98175.19;5020266;28;20208;-80
2023/03/07 05:59:24;;;;;;;11.40;10.33;;;;;;;2.43;100.00;98157.66;5036488;28;20296;-78
2023/03/07 06:01:50;;;;;;;10.77;9.67;;;;;;;2.46;100.00;98151.56;5039600;28;20207;-80
2023/03/07 06:04:16;;;;;;;6.43;5.83;;;;;;;2.12;100.00;98130.03;5039534;28;20207;-80
2023/03/07 06:06:43;;;;;;;5.50;4.83;;;;;;;1.97;100.00;98128.63;5041795;28;20216;-80
2023/03/07 06:09:09;;;;;;;5.83;5.33;;;;;;;1.73;100.00;98122.28;5059967;28;20250;-80
2023/03/07 06:11:37;;;;;;;4.97;4.23;;;;;;;1.69;100.00;98104.41;5059901;28;20279;-79
2023/03/07 06:14:03;;;;;;;5.73;5.23;;;;;;;1.75;100.00;98099.97;5059981;28;20200;-79
2023/03/07 06:16:29;;;;;;;5.63;5.13;;;;;;;1.79;100.00;98105.88;5059534;28;20207;-79
2023/03/07 06:18:56;;;;;;;5.07;4.57;;;;;;;1.73;100.00;98114.56;5059601;28;20630;-79
2023/03/07 06:21:22;;;;;;;4.63;4.23;;;;;;;1.76;100.00;98111.09;5060163;28;20684;-80
2023/03/07 06:23:48;;;;;;;5.17;4.67;;;;;;;1.65;100.00;98116.47;5059673;28;20603;-81
2023/03/07 06:26:15;;;;;;;4.73;4.33;;;;;;;1.68;100.00;98128.41;5059632;28;20236;-81
2023/03/07 06:28:43;;;;;;;5.03;4.43;;;;;;;1.63;100.00;98138.78;5058929;28;20248;-81
2023/03/07 06:31:10;;;;;;;4.77;4.33;;;;;;;1.64;100.00;98139.63;5059715;28;20355;-81
2023/03/07 06:33:36;;;;;;;5.27;4.73;;;;;;;1.72;100.00;98133.44;5059070;28;20202;-80
2023/03/07 06:36:06;;;;;;;8.20;4.63;;;;;;;1.70;100.00;98135.19;5058077;28;20256;-80
2023/03/07 06:38:32;;;;;;;4.27;3.87;;;;;;;1.74;100.00;98146.28;5055390;28;20235;-82
2023/03/07 06:40:59;;;;;;;4.53;4.13;;;;;;;1.90;100.00;98152.81;5039837;28;20261;-79
2023/03/07 06:43:25;;;;;;;4.93;3.93;;;;;;;1.77;100.00;98164.22;5039028;28;20364;-81
2023/03/07 06:45:53;;;;;;;4.53;4.13;;;;;;;1.92;100.00;98171.63;5038342;28;20260;-81
2023/03/07 06:48:19;;;;;;;4.53;4.13;;;;;;;1.89;100.00;98170.84;5038491;28;20292;-80
2023/03/07 06:50:46;;;;;;;3.90;3.60;;;;;;;1.90;100.00;98175.97;5038550;28;20206;-79
2023/03/07 06:53:13;;;;;;;3.20;2.90;;;;;;;1.94;100.00;98179.31;5038527;28;20206;-81
2023/03/07 06:55:39;;;;;;;3.63;3.13;;;;;;;1.97;100.00;98185.22;5037943;28;20206;-81
2023/03/07 06:58:05;;;;;;;3.37;3.07;;;;;;;1.93;100.00;98187.91;5037899;28;20235;-80
2023/03/07 07:00:32;;;;;;;4.83;3.30;;;;;;;1.99;100.00;98196.34;5037747;28;20211;-80
2023/03/07 07:02:59;;;;;;;3.83;3.37;;;;;;;1.88;100.00;98203.41;5038604;28;20224;-82
2023/03/07 07:05:26;;;;;;;4.20;3.80;;;;;;;1.81;100.00;98198.47;5037933;28;20206;-79
2023/03/07 07:07:52;;;;;;;3.53;3.23;;;;;;;1.81;100.00;98194.16;5038351;28;20287;-80
2023/03/07 07:10:18;;;;;;;3.87;3.40;;;;;;;1.84;100.00;98183.78;5035257;28;20241;-80
2023/03/07 07:12:45;;;;;;;5.20;3.57;;;;;;;1.84;100.00;98180.38;5029800;28;20367;-79
2023/03/07 07:15:11;;;;;;;4.17;3.77;;;;;;;1.91;100.00;98177.66;5031533;28;20203;-81
2023/03/07 07:17:38;;;;;;;5.70;3.67;;;;;;;2.06;100.00;98180.78;5033895;28;20263;-81
2023/03/07 07:20:10;;;;;;;4.53;3.77;;;;;;;2.10;100.00;98193.56;5026247;28;20200;-81
2023/03/07 07:22:36;;;;;;;4.47;2.90;;;;;;;2.15;100.00;98201.19;5029367;28;20272;-80
2023/03/07 07:25:02;;;;;;;3.47;3.17;;;;;;;2.17;100.00;98207.13;5035837;28;20207;-80
2023/03/07 07:27:29;;;;;;;3.33;3.07;;;;;;;1.90;100.00;98214.56;5045461;28;20208;-79
2023/03/07 07:29:55;;;;;;;5.63;4.00;;;;;;;1.99;100.00;98223.81;5038022;28;20242;-80
2023/03/07 07:32:21;;;;;;;3.60;2.73;;;;;;;1.87;100.00;98221.47;5035221;28;20210;-78
2023/03/07 07:34:48;;;;;;;4.67;3.57;;;;;;;1.98;100.00;98211.81;5027117;28;20209;-80
2023/03/07 07:37:15;;;;;;;3.33;2.97;;;;;;;1.88;100.00;98216.28;5031274;28;20316;-79
2023/03/07 07:39:42;;;;;;;4.03;2.73;;;;;;;1.79;100.00;98211.34;5035908;28;20297;-78
2023/03/07 07:42:09;;;;;;;3.20;2.70;;;;;;;1.80;100.00;98207.88;5033191;28;20207;-79
2023/03/07 07:44:36;;;;;;;2.97;2.30;;;;;;;1.80;100.00;98210.44;5034393;28;20223;-79
2023/03/07 07:47:02;;;;;;;4.03;3.10;;;;;;;1.88;100.00;98200.00;5028068;28;20196;-78
2023/03/07 07:49:28;;;;;;;5.37;4.00;;;;;;;2.09;100.00;98204.72;5032323;28;20261;-79
2023/03/07 07:51:55;;;;;;;5.30;3.77;;;;;;;2.15;100.00;98198.59;5028251;28;20252;-80
2023/03/07 07:54:22;;;;;;;4.40;4.00;;;;;;;2.34;100.00;98189.59;5025565;28;20255;-80
2023/03/07 07:56:49;;;;;;;4.23;3.83;;;;;;;2.13;100.00;98205.50;5026251;28;20194;-80
2023/03/07 07:59:15;;;;;;;4.93;4.13;;;;;;;2.14;100.00;98208.06;5027783;28;20222;-80
2023/03/07 08:01:42;;;;;;;5.57;4.17;;;;;;;2.07;100.00;98227.06;5025545;28;20217;-80
2023/03/07 08:04:08;;;;;;;5.87;4.77;;;;;;;2.04;100.00;98226.28;5026135;28;20217;-79
2023/03/07 08:06:34;;;;;;;11.53;7.93;;;;;;;2.25;100.00;98212.13;5027129;28;20198;-78
2023/03/07 08:09:01;;;;;;;8.60;6.73;;;;;;;2.21;100.00;98216.47;5029018;28;20221;-78
2023/03/07 08:11:29;;;;;;;15.50;8.73;;;;;;;2.41;100.00;98216.06;5030397;28;20272;-79
2023/03/07 08:13:55;;;;;;;7.47;6.33;;;;;;;2.39;100.00;98218.66;5027757;28;20277;-80
2023/03/07 08:16:23;;;;;;;6.87;5.93;;;;;;;2.35;100.00;98227.31;5026196;28;20218;-79
2023/03/07 08:18:52;;;;;;;15.83;10.80;;;;;;;2.40;100.00;98234.97;5028107;28;20280;-78
2023/03/07 08:21:18;;;;;;;9.07;7.17;;;;;;;2.37;100.00;98240.16;5025172;28;20310;-79
2023/03/07 08:23:45;;;;;;;5.60;4.93;;;;;;;2.33;100.00;98247.09;5026049;28;20709;-79
2023/03/07 08:26:12;;;;;;;6.77;5.33;;;;;;;2.05;100.00;98258.84;5026044;28;20204;-79
2023/03/07 08:28:41;;;;;;;4.87;4.47;;;;;;;1.72;100.00;98256.03;5024599;28;20222;-78
2023/03/07 08:31:08;;;;;;;4.67;4.27;;;;;;;1.55;100.00;98244.34;5025523;28;20311;-79
2023/03/07 08:33:34;;;;;;;5.10;4.60;;;;;;;1.24;100.00;98240.63;5026993;28;20268;-77
2023/03/07 08:36:00;;;;;;;4.77;4.17;;;;;;;1.22;100.00;98229.53;5024328;28;20199;-80
2023/03/07 08:38:27;;;;;;;5.53;4.27;;;;;;;1.09;100.00;98210.88;5021533;28;20218;-78
2023/03/07 08:40:53;;;;;;;3.27;2.80;;;;;;;1.07;100.00;98217.75;5023312;28;20207;-78
2023/03/07 08:43:19;;;;;;;3.40;3.00;;;;;;;1.22;100.00;98217.50;5021661;28;20226;-77
2023/03/07 08:45:50;;;;;;;3.17;2.70;;;;;;;1.07;100.00;98210.94;5023787;28;20202;-78
2023/03/07 08:48:16;;;;;;;2.77;2.50;;;;;;;0.99;100.00;98217.88;5028150;28;20237;-77
2023/03/07 08:50:42;;;;;;;2.63;2.20;;;;;;;0.96;100.00;98211.09;5026197;28;20210;-78
2023/03/07 08:53:09;;;;;;;2.77;2.10;;;;;;;1.02;100.00;98228.13;5024177;28;20738;-78
2023/03/07 08:55:35;;;;;;;2.63;2.43;;;;;;;0.92;100.00;98214.59;5022545;28;20820;-78
2023/03/07 08:58:02;;;;;;;2.00;1.80;;;;;;;0.80;100.00;98219.91;5021560;28;20214;-78
2023/03/07 09:00:28;;;;;;;2.20;1.47;;;;;;;0.63;100.00;98214.19;5022603;28;20208;-78
2023/03/07 09:02:57;;;;;;;2.07;1.87;;;;;;;0.58;100.00;98209.97;5024880;28;20194;-78
2023/03/07 09:05:23;;;;;;;3.37;2.10;;;;;;;0.62;100.00;98217.63;5025862;28;20214;-79
2023/03/07 09:07:49;;;;;;;5.77;2.67;;;;;;;0.60;100.00;98225.34;5022752;28;20273;-78
2023/03/07 09:10:19;;;;;;;5.13;2.80;;;;;;;0.52;100.00;98224.63;5024289;28;20727;-77
2023/03/07 09:12:45;;;;;;;2.60;2.30;;;;;;;0.40;100.00;98223.06;5025253;28;20246;-78
2023/03/07 09:15:11;;;;;;;4.40;2.20;;;;;;;0.60;100.00;98222.78;5023399;28;20197;-80
2023/03/07 09:17:38;;;;;;;2.87;2.60;;;;;;;0.53;100.00;98219.44;5025766;28;20205;-79
2023/03/07 09:20:08;;;;;;;3.00;2.70;;;;;;;0.66;100.00;98211.59;5027041;28;20214;-79
2023/03/07 09:22:34;;;;;;;3.03;1.90;;;;;;;0.83;100.00;98219.00;5025263;28;20214;-78
2023/03/07 09:25:00;;;;;;;2.00;1.83;;;;;;;0.85;100.00;98222.41;5032525;28;20220;-79
2023/03/07 09:27:27;;;;;;;2.57;1.73;;;;;;;0.88;100.00;98223.22;5026403;28;20581;-78
2023/03/07 09:29:53;;;;;;;4.30;2.50;;;;;;;1.02;100.00;98217.00;5029173;28;20708;-79
2023/03/07 09:32:19;;;;;;;2.80;2.10;;;;;;;1.04;100.00;98221.25;5029091;28;20672;-78
2023/03/07 09:34:46;;;;;;;2.93;2.00;;;;;;;1.18;100.00;98221.84;5035958;28;20261;-78
2023/03/07 09:37:14;;;;;;;2.00;1.77;;;;;;;1.26;100.00;98226.03;5028021;28;20206;-77
2023/03/07 09:39:40;;;;;;;1.97;1.77;;;;;;;1.24;100.00;98236.31;5029478;28;20581;-79
2023/03/07 09:42:20;;;;;;;4.80;1.80;;;;;;;1.35;100.00;98244.72;5029857;28;20208;-79
2023/03/07 09:45:03;;;;;;;3.00;1.30;;;;;;;1.36;100.00;98261.81;5026816;28;20254;-78
2023/03/07 09:47:45;;;;;;;2.87;1.70;;;;;;;1.34;100.00;98262.72;5019747;28;20694;-79
2023/03/07 09:50:17;;;;;;;1.87;1.37;;;;;;;1.36;100.00;98261.81;5020733;28;20202;-77
2023/03/07 09:52:45;;;;;;;1.77;1.20;;;;;;;1.22;100.00;98275.78;5025192;28;20209;-77
2023/03/07 09:55:16;;;;;;;4.47;2.90;;;;;;;1.26;100.00;98274.84;5024912;28;20261;-77
2023/03/07 09:57:49;;;;;;;3.77;1.83;;;;;;;1.32;100.00;98272.19;5018166;28;20215;-78
2023/03/07 10:00:21;;;;;;;2.93;1.20;;;;;;;1.04;100.00;98280.31;5019147;28;20210;-78
2023/03/07 10:02:51;;;;;;;3.50;1.47;;;;;;;0.85;100.00;98276.34;5018404;28;20207;-77
2023/03/07 10:05:29;;;;;;;3.90;1.57;;;;;;;0.96;100.00;98269.31;5017487;28;20278;-78
2023/03/07 10:07:57;;;;;;;3.43;1.43;;;;;;;0.91;100.00;98266.84;5017256;28;20223;-78
2023/03/07 10:10:25;;;;;;;3.23;1.63;;;;;;;0.85;100.00;98269.47;5051175;28;20206;-77
2023/03/07 10:13:14;;;;;;;2.00;1.40;;;;;;;0.78;100.00;98273.03;5055659;28;20213;-77
2023/03/07 10:15:45;;;;;;;3.80;1.50;;;;;;;0.68;100.00;98269.72;5055944;28;20209;-79
2023/03/07 10:18:27;;;;;;;3.63;1.53;;;;;;;0.61;100.00;98280.94;5057117;28;20260;-78
2023/03/07 10:21:02;;;;;;;1.97;1.60;;;;;;;0.63;100.00;98262.97;5056036;28;20262;-77
2023/03/07 10:23:45;;;;;;;2.53;1.63;;;;;;;0.66;100.00;98268.91;5055006;28;20283;-77
2023/03/07 10:26:16;;;;;;;1.77;1.50;;;;;;;0.69;100.00;98270.56;5040743;28;20225;-78
2023/03/07 10:28:45;;;;;;;1.63;1.53;;;;;;;0.62;100.00;98263.84;5027811;28;20218;-78
2023/03/07 10:31:17;;;;;;;1.83;1.73;;;;;;;0.61;100.00;98259.56;5026306;28;20274;-77
2023/03/07 10:33:46;;;;;;;1.83;1.57;;;;;;;0.66;100.00;98274.03;5028415;28;20559;-77
2023/03/07 10:36:15;;;;;;;3.00;1.60;;;;;;;0.55;100.00;98275.91;5050143;28;20210;-79
2023/03/07 10:38:55;;;;;;;4.30;1.73;;;;;;;0.53;100.00;98267.38;5049970;28;20230;-78
2023/03/07 10:41:22;;;;;;;3.53;1.90;;;;;;;0.49;100.00;98270.84;5056595;28;20201;-78
2023/03/07 10:43:50;;;;;;;3.00;1.50;;;;;;;0.48;100.00;98271.75;5057705;28;20224;-78
2023/03/07 10:46:18;;;;;;;2.03;1.70;;;;;;;0.54;100.00;98275.06;5057000;28;20230;-78
2023/03/07 10:48:48;;;;;;;3.27;2.00;;;;;;;0.51;100.00;98279.38;5035041;28;20227;-78
2023/03/07 10:51:29;;;;;;;2.07;1.60;;;;;;;0.53;100.00;98272.50;5036905;28;20215;-79
2023/03/07 10:53:57;;;;;;;2.50;1.60;;;;;;;0.63;100.00;98274.06;5037319;28;20229;-80
2023/03/07 10:56:23;;;;;;;4.20;1.60;;;;;;;0.48;100.00;98285.41;5037427;28;20209;-78
2023/03/07 10:59:00;;;;;;;1.63;1.50;;;;;;;0.35;100.00;98274.44;5036915;28;20226;-79
2023/03/07 11:01:27;;;;;;;1.33;1.23;;;;;;;0.54;100.00;98277.63;5037599;28;20276;-78
2023/03/07 11:03:59;;;;;;;1.93;1.30;;;;;;;0.49;100.00;98287.09;5036569;28;20229;-79
2023/03/07 11:06:33;;;;;;;1.80;1.30;;;;;;;0.52;100.00;98275.97;5036845;28;20581;-79
2023/03/07 11:09:10;;;;;;;2.37;1.30;;;;;;;0.48;100.00;98272.56;5037469;28;20777;-78
2023/03/07 11:11:37;;;;;;;2.27;1.60;;;;;;;0.38;100.00;98276.97;5031681;28;20202;-78
2023/03/07 11:14:06;;;;;;;2.10;1.63;;;;;;;0.55;100.00;98265.63;5027559;28;20195;-79
2023/03/07 11:16:32;;;;;;;1.73;1.63;;;;;;;0.66;100.00;98263.78;5027490;28;20664;-79
2023/03/07 11:18:59;;;;;;;1.70;1.60;;;;;;;0.78;100.00;98273.88;5029814;28;20230;-80
2023/03/07 11:21:29;;;;;;;2.10;1.73;;;;;;;0.97;100.00;98264.19;5033315;28;20203;-80
2023/03/07 11:24:00;;;;;;;3.53;1.47;;;;;;;1.10;100.00;98271.69;5025173;28;20229;-80
2023/03/07 11:26:32;;;;;;;1.67;1.50;;;;;;;0.97;100.00;98289.84;5018280;28;20206;-81
2023/03/07 11:29:07;;;;;;;1.50;1.40;;;;;;;1.12;100.00;98295.63;5018053;28;20252;-79
2023/03/07 11:31:45;;;;;;;3.37;1.70;;;;;;;0.92;100.00;98301.06;5017458;28;20272;-80
2023/03/07 11:34:25;;;;;;;1.90;1.57;;;;;;;1.20;100.00;98293.78;5019577;28;20212;-79